createdAt,value
2019-01-12T00:01:24.371Z,6.17
2019-01-12T00:03:52.801Z,5.57
2019-01-12T00:06:21.249Z,3.97
2019-01-12T00:08:49.677Z,5.73
2019-01-12T00:11:18.111Z,4.60
2019-01-12T00:13:46.547Z,5.77
2019-01-12T00:16:14.648Z,4.87
2019-01-12T00:18:43.087Z,3.03
2019-01-12T00:21:11.292Z,3.40
2019-01-12T00:23:39.409Z,3.03
2019-01-12T00:26:07.484Z,3.20
2019-01-12T00:28:35.600Z,2.73
2019-01-12T00:31:04.091Z,3.70
2019-01-12T00:33:32.517Z,2.97
2019-01-12T00:36:00.845Z,3.10
2019-01-12T00:38:28.924Z,3.20
2019-01-12T00:40:57.021Z,3.33
2019-01-12T00:43:25.098Z,4.20
2019-01-12T00:45:53.191Z,2.50
2019-01-12T00:48:21.286Z,3.00
2019-01-12T00:50:49.432Z,3.07
2019-01-12T00:53:17.530Z,3.63
2019-01-12T00:55:45.627Z,2.60
2019-01-12T00:58:13.718Z,2.20
2019-01-12T01:00:41.831Z,2.53
2019-01-12T01:03:10.238Z,3.07
2019-01-12T01:05:38.677Z,2.80
2019-01-12T01:08:06.778Z,2.67
2019-01-12T01:10:35.189Z,2.67
2019-01-12T01:13:03.609Z,3.00
2019-01-12T01:15:32.309Z,3.00
2019-01-12T01:18:00.732Z,2.77
2019-01-12T01:20:28.820Z,2.47
2019-01-12T01:22:57.241Z,2.17
2019-01-12T01:25:25.429Z,2.50
2019-01-12T01:27:53.526Z,3.33
2019-01-12T01:30:21.635Z,2.17
2019-01-12T01:32:50.018Z,2.60
2019-01-12T01:35:18.453Z,3.13
2019-01-12T01:37:46.869Z,2.60
2019-01-12T01:40:15.870Z,2.57
2019-01-12T01:42:44.430Z,2.63
2019-01-12T01:45:13.698Z,3.27
2019-01-12T01:47:41.869Z,2.67
2019-01-12T01:50:12.438Z,2.90
2019-01-12T01:52:41.081Z,2.50
2019-01-12T01:55:09.733Z,3.30
2019-01-12T01:57:38.072Z,2.93
2019-01-12T02:00:12.073Z,2.73
2019-01-12T02:02:40.479Z,2.67
2019-01-12T02:05:08.592Z,2.77
2019-01-12T02:07:37.025Z,2.63
2019-01-12T02:10:11.346Z,2.10
2019-01-12T02:12:39.762Z,2.30
2019-01-12T02:15:10.816Z,2.53
2019-01-12T02:17:39.005Z,2.17
2019-01-12T02:20:07.462Z,2.27
2019-01-12T02:22:36.777Z,2.30
2019-01-12T02:25:06.236Z,2.27
2019-01-12T02:27:34.326Z,2.40
2019-01-12T02:30:03.315Z,2.93
2019-01-12T02:32:31.406Z,2.93
2019-01-12T02:34:59.821Z,2.23
2019-01-12T02:37:28.247Z,2.50
2019-01-12T02:39:56.330Z,2.97
2019-01-12T02:42:24.421Z,2.80
2019-01-12T02:44:52.524Z,2.50
2019-01-12T02:47:20.726Z,2.40
2019-01-12T02:49:48.812Z,2.10
2019-01-12T02:52:16.901Z,2.37
2019-01-12T02:54:45.285Z,2.30
2019-01-12T02:57:13.385Z,2.70
2019-01-12T02:59:41.811Z,2.40
2019-01-12T03:02:10.224Z,2.40
2019-01-12T03:04:38.652Z,2.80
2019-01-12T03:07:06.753Z,2.10
2019-01-12T03:09:34.860Z,2.43
2019-01-12T03:12:03.322Z,2.77
2019-01-12T03:14:44.157Z,2.60
2019-01-12T03:17:12.737Z,2.50
2019-01-12T03:19:40.826Z,2.60
2019-01-12T03:22:08.931Z,3.53
2019-01-12T03:24:37.017Z,2.37
2019-01-12T03:27:05.437Z,2.33
2019-01-12T03:29:33.844Z,2.27
2019-01-12T03:32:02.014Z,2.40
2019-01-12T03:34:30.103Z,2.30
2019-01-12T03:36:58.521Z,2.20
2019-01-12T03:39:26.971Z,2.80
2019-01-12T03:41:55.436Z,2.53
2019-01-12T03:44:23.856Z,2.67
2019-01-12T03:46:51.948Z,3.03
2019-01-12T03:49:20.029Z,2.63
2019-01-12T03:51:48.128Z,2.33
2019-01-12T03:54:16.211Z,3.17
2019-01-12T03:56:44.909Z,2.40
2019-01-12T03:59:13.315Z,2.77
2019-01-12T04:01:41.737Z,2.40
2019-01-12T04:04:09.832Z,2.57
2019-01-12T04:06:38.262Z,2.83
2019-01-12T04:09:07.845Z,2.33
2019-01-12T04:11:36.024Z,2.60
2019-01-12T04:14:04.914Z,2.50
2019-01-12T04:16:33.027Z,2.90
2019-01-12T04:19:01.614Z,3.30
2019-01-12T04:21:29.818Z,2.93
2019-01-12T04:23:58.043Z,2.53
2019-01-12T04:26:26.189Z,3.40
2019-01-12T04:28:54.426Z,2.50
2019-01-12T04:31:23.641Z,3.03
2019-01-12T04:33:51.743Z,4.57
2019-01-12T04:36:20.141Z,3.03
2019-01-12T04:38:48.572Z,2.90
2019-01-12T04:41:16.981Z,3.00
2019-01-12T04:43:45.069Z,2.63
2019-01-12T04:46:13.480Z,3.20
2019-01-12T04:48:41.576Z,4.07
2019-01-12T04:51:10.074Z,3.20
2019-01-12T04:53:38.503Z,3.03
2019-01-12T04:56:06.581Z,3.27
2019-01-12T04:58:34.681Z,3.10
2019-01-12T05:01:03.100Z,3.80
2019-01-12T05:03:31.520Z,2.73
2019-01-12T05:05:59.929Z,2.47
2019-01-12T05:08:28.605Z,3.40
2019-01-12T05:10:57.019Z,3.43
2019-01-12T05:13:25.686Z,4.00
2019-01-12T05:15:53.938Z,2.50
2019-01-12T05:18:22.424Z,3.60
2019-01-12T05:20:50.836Z,2.90
2019-01-12T05:23:19.570Z,3.97
2019-01-12T05:25:49.087Z,3.20
2019-01-12T05:28:17.604Z,2.37
2019-01-12T05:30:46.017Z,2.63
2019-01-12T05:33:14.483Z,2.30
2019-01-12T05:35:42.636Z,2.03
2019-01-12T05:38:11.061Z,2.20
2019-01-12T05:40:39.140Z,2.40
2019-01-12T05:43:07.222Z,2.20
2019-01-12T05:45:35.894Z,3.90
2019-01-12T05:48:04.136Z,2.07
2019-01-12T05:50:32.569Z,2.37
2019-01-12T05:53:00.985Z,2.73
2019-01-12T05:55:29.077Z,2.63
2019-01-12T05:57:57.159Z,2.53
2019-01-12T06:00:25.665Z,3.90
2019-01-12T06:02:54.085Z,3.20
2019-01-12T06:05:22.504Z,3.13
2019-01-12T06:07:51.262Z,2.87
2019-01-12T06:10:19.366Z,2.47
2019-01-12T06:12:47.851Z,2.67
2019-01-12T06:15:16.484Z,3.97
2019-01-12T06:17:44.995Z,2.07
2019-01-12T06:20:13.999Z,2.30
2019-01-12T06:22:42.425Z,2.10
2019-01-12T06:25:10.927Z,4.07
2019-01-12T06:27:39.009Z,1.60
2019-01-12T06:30:10.856Z,3.60
2019-01-12T06:32:39.273Z,2.23
2019-01-12T06:35:07.605Z,5.80
2019-01-12T06:37:36.273Z,2.47
2019-01-12T06:40:08.105Z,2.27
2019-01-12T06:42:36.522Z,3.33
2019-01-12T06:45:06.152Z,2.27
2019-01-12T06:47:34.304Z,1.53
2019-01-12T06:50:04.207Z,2.40
2019-01-12T06:52:32.279Z,1.93
2019-01-12T06:55:00.365Z,2.57
2019-01-12T06:57:28.777Z,1.97
2019-01-12T06:59:56.869Z,3.17
2019-01-12T07:02:24.967Z,1.83
2019-01-12T07:04:53.390Z,2.00
2019-01-12T07:07:21.804Z,2.77
2019-01-12T07:09:49.896Z,2.73
2019-01-12T07:12:18.308Z,3.10
2019-01-12T07:14:46.737Z,2.93
2019-01-12T07:17:14.821Z,3.27
2019-01-12T07:19:42.916Z,3.00
2019-01-12T07:22:11.022Z,3.30
2019-01-12T07:24:39.121Z,4.67
2019-01-12T07:27:07.198Z,3.50
2019-01-12T07:29:35.658Z,4.40
2019-01-12T07:32:03.775Z,3.97
2019-01-12T07:34:32.204Z,4.63
2019-01-12T07:37:00.541Z,4.77
2019-01-12T07:39:28.982Z,3.90
2019-01-12T07:41:57.391Z,8.20
2019-01-12T07:44:25.472Z,3.90
2019-01-12T07:46:53.576Z,4.33
2019-01-12T07:49:21.664Z,4.20
2019-01-12T07:51:49.784Z,3.63
2019-01-12T07:54:17.875Z,4.73
2019-01-12T07:56:45.960Z,4.70
2019-01-12T07:59:14.482Z,4.20
2019-01-12T08:01:43.160Z,5.03
2019-01-12T08:04:11.573Z,3.20
2019-01-12T08:06:39.992Z,3.93
2019-01-12T08:09:09.033Z,4.43
2019-01-12T08:11:37.120Z,4.83
2019-01-12T08:14:05.200Z,4.57
2019-01-12T08:16:33.938Z,6.00
2019-01-12T08:19:02.348Z,6.47
2019-01-12T08:21:30.779Z,5.00
2019-01-12T08:23:59.191Z,7.57
2019-01-12T08:26:31.272Z,4.77
2019-01-12T08:28:57.706Z,4.60
2019-01-12T08:31:26.051Z,5.20
2019-01-12T08:33:55.966Z,4.87
2019-01-12T08:36:24.138Z,5.87
2019-01-12T08:38:52.286Z,6.93
2019-01-12T08:41:20.718Z,5.17
2019-01-12T08:43:49.136Z,4.77
2019-01-12T08:46:17.292Z,5.80
2019-01-12T08:48:45.369Z,4.63
2019-01-12T08:51:13.712Z,6.83
2019-01-12T08:53:41.796Z,6.37
2019-01-12T08:56:09.884Z,5.43
2019-01-12T08:58:37.972Z,5.37
2019-01-12T09:01:06.071Z,7.40
2019-01-12T09:03:34.484Z,6.13
2019-01-12T09:06:02.902Z,6.20
2019-01-12T09:08:31.367Z,5.20
2019-01-12T09:10:59.784Z,5.67
2019-01-12T09:13:28.230Z,5.33
2019-01-12T09:15:56.329Z,7.60
2019-01-12T09:18:24.745Z,5.50
2019-01-12T09:20:53.173Z,4.80
2019-01-12T09:23:21.369Z,5.20
2019-01-12T09:25:49.460Z,5.47
2019-01-12T09:28:17.626Z,5.83
2019-01-12T09:30:48.618Z,5.67
2019-01-12T09:33:16.180Z,6.80
2019-01-12T09:35:44.267Z,5.97
2019-01-12T09:38:12.702Z,5.77
2019-01-12T09:40:40.785Z,6.30
2019-01-12T09:43:09.493Z,7.13
2019-01-12T09:45:37.943Z,6.00
2019-01-12T09:48:06.417Z,5.97
2019-01-12T09:50:34.494Z,6.60
2019-01-12T09:53:02.931Z,7.43
2019-01-12T09:55:31.400Z,5.67
2019-01-12T09:57:59.490Z,5.87
2019-01-12T10:00:27.972Z,7.10
2019-01-12T10:02:56.137Z,7.23
2019-01-12T10:05:24.216Z,6.50
2019-01-12T10:07:52.306Z,6.53
2019-01-12T10:10:21.462Z,6.87
2019-01-12T10:12:49.883Z,6.10
2019-01-12T10:15:18.037Z,7.93
2019-01-12T10:17:46.525Z,8.50
2019-01-12T10:20:17.240Z,6.23
2019-01-12T10:22:45.912Z,23.60
2019-01-12T10:25:14.470Z,7.77
2019-01-12T10:27:42.885Z,5.97
2019-01-12T10:30:12.509Z,6.20
2019-01-12T10:32:40.941Z,7.27
2019-01-12T10:35:09.093Z,13.17
2019-01-12T10:37:37.524Z,6.27
2019-01-12T10:40:09.477Z,7.23
2019-01-12T10:42:37.897Z,6.57
2019-01-12T10:45:09.761Z,7.87
2019-01-12T10:47:38.178Z,6.13
2019-01-12T10:50:09.940Z,6.27
2019-01-12T10:52:38.025Z,6.20
2019-01-12T10:55:06.812Z,6.13
2019-01-12T10:57:34.910Z,7.00
2019-01-12T11:00:05.137Z,7.37
2019-01-12T11:02:33.628Z,6.57
2019-01-12T11:05:02.045Z,7.07
2019-01-12T11:07:30.468Z,6.90
2019-01-12T11:10:04.128Z,6.17
2019-01-12T11:12:28.461Z,7.17
2019-01-12T11:14:56.532Z,6.17
2019-01-12T11:17:24.624Z,7.43
2019-01-12T11:19:53.926Z,7.03
2019-01-12T11:22:22.488Z,8.33
2019-01-12T11:24:50.577Z,8.07
2019-01-12T11:27:18.993Z,6.97
2019-01-12T11:29:47.408Z,7.47
2019-01-12T11:32:15.515Z,10.77
2019-01-12T11:34:44.256Z,7.07
2019-01-12T11:37:12.669Z,8.00
2019-01-12T11:39:41.103Z,9.77
2019-01-12T11:42:09.517Z,6.17
2019-01-12T11:44:37.616Z,6.30
2019-01-12T11:47:06.854Z,7.53
2019-01-12T11:49:34.948Z,6.47
2019-01-12T11:52:03.406Z,6.43
2019-01-12T11:54:31.509Z,5.70
2019-01-12T11:56:59.597Z,9.27
2019-01-12T11:59:27.691Z,7.30
2019-01-12T12:01:56.101Z,7.73
2019-01-12T12:04:24.525Z,8.70
2019-01-12T12:06:52.912Z,9.50
2019-01-12T12:09:21.339Z,9.90
2019-01-12T12:11:49.793Z,9.37
2019-01-12T12:14:17.920Z,9.73
2019-01-12T12:16:46.400Z,10.97
2019-01-12T12:19:14.821Z,9.43
2019-01-12T12:21:42.973Z,9.97
2019-01-12T12:24:11.083Z,8.70
2019-01-12T12:26:39.512Z,9.40
2019-01-12T12:29:07.608Z,9.40
2019-01-12T12:31:36.032Z,8.67
2019-01-12T12:34:04.624Z,9.77
2019-01-12T12:36:33.041Z,9.70
2019-01-12T12:39:01.466Z,9.80
2019-01-12T12:41:29.557Z,9.13
2019-01-12T12:43:57.976Z,8.77
2019-01-12T12:46:26.394Z,8.77
2019-01-12T12:48:54.476Z,8.00
2019-01-12T12:51:22.880Z,8.03
2019-01-12T12:53:50.977Z,8.20
2019-01-12T12:56:19.449Z,7.83
2019-01-12T12:58:47.548Z,7.53
2019-01-12T13:01:15.961Z,7.57
2019-01-12T13:03:44.396Z,9.23
2019-01-12T13:06:12.877Z,6.97
2019-01-12T13:08:40.972Z,9.10
2019-01-12T13:11:09.400Z,9.80
2019-01-12T13:13:37.829Z,10.23
2019-01-12T13:16:06.252Z,7.67
2019-01-12T13:18:34.673Z,7.53
2019-01-12T13:21:03.013Z,8.70
2019-01-12T13:23:31.441Z,6.90
2019-01-12T13:25:59.525Z,9.83
2019-01-12T13:28:27.861Z,8.47
2019-01-12T13:30:55.957Z,11.77
2019-01-12T13:33:24.371Z,8.07
2019-01-12T13:35:52.801Z,8.47
2019-01-12T13:38:21.212Z,7.10
2019-01-12T13:40:49.409Z,7.67
2019-01-12T13:43:17.500Z,8.30
2019-01-12T13:45:45.934Z,8.97
2019-01-12T13:48:14.347Z,9.23
2019-01-12T13:50:43.333Z,8.07
2019-01-12T13:53:11.677Z,7.27
2019-01-12T13:55:39.772Z,7.77
2019-01-12T13:58:07.851Z,6.17
2019-01-12T14:00:36.445Z,7.10
2019-01-12T14:03:05.469Z,10.23
2019-01-12T14:05:33.562Z,8.37
2019-01-12T14:08:01.967Z,9.10
2019-01-12T14:10:30.384Z,7.40
2019-01-12T14:12:58.965Z,9.13
2019-01-12T14:15:27.521Z,8.73
2019-01-12T14:17:55.790Z,8.30
2019-01-12T14:20:29.582Z,8.53
2019-01-12T14:22:57.660Z,6.30
2019-01-12T14:25:27.126Z,7.27
2019-01-12T14:27:55.781Z,7.10
2019-01-12T14:30:23.934Z,6.57
2019-01-12T14:32:52.395Z,8.67
2019-01-12T14:35:20.919Z,7.73
2019-01-12T14:37:49.479Z,8.00
2019-01-12T14:40:21.442Z,5.83
2019-01-12T14:42:50.001Z,5.57
2019-01-12T14:45:24.141Z,5.70
2019-01-12T14:47:52.482Z,6.17
2019-01-12T14:50:20.994Z,7.50
2019-01-12T14:52:49.397Z,7.73
2019-01-12T14:55:19.361Z,7.27
2019-01-12T14:57:47.482Z,6.67
2019-01-12T15:00:16.569Z,6.07
2019-01-12T15:02:45.042Z,6.63
2019-01-12T15:05:16.986Z,7.40
2019-01-12T15:07:45.611Z,7.17
2019-01-12T15:10:16.262Z,5.43
2019-01-12T15:12:44.420Z,5.17
2019-01-12T15:15:14.056Z,6.50
2019-01-12T15:17:42.473Z,5.47
2019-01-12T15:20:24.629Z,4.77
2019-01-12T15:22:53.140Z,4.73
2019-01-12T15:25:21.208Z,4.33
2019-01-12T15:27:49.318Z,4.77
2019-01-12T15:30:27.945Z,5.00
2019-01-12T15:32:56.216Z,4.57
2019-01-12T15:35:25.936Z,4.03
2019-01-12T15:37:54.025Z,5.70
2019-01-12T15:40:22.994Z,5.63
2019-01-12T15:42:51.396Z,5.13
2019-01-12T15:45:22.335Z,4.70
2019-01-12T15:47:50.846Z,4.97
2019-01-12T15:50:25.638Z,5.97
2019-01-12T15:52:53.798Z,4.43
2019-01-12T15:55:22.552Z,5.70
2019-01-12T15:57:50.989Z,5.40
2019-01-12T16:00:21.918Z,4.83
2019-01-12T16:02:50.347Z,4.93
2019-01-12T16:05:19.013Z,4.63
2019-01-12T16:07:47.472Z,4.80
2019-01-12T16:10:16.081Z,5.23
2019-01-12T16:12:45.460Z,5.53
2019-01-12T16:15:16.905Z,5.17
2019-01-12T16:17:45.257Z,5.63
2019-01-12T16:20:19.221Z,5.30
2019-01-12T16:22:47.306Z,6.33
2019-01-12T16:25:15.430Z,6.67
2019-01-12T16:27:43.562Z,6.67
2019-01-12T16:30:20.169Z,5.93
2019-01-12T16:32:48.830Z,6.23
2019-01-12T16:35:17.788Z,6.57
2019-01-12T16:37:47.692Z,6.00
2019-01-12T16:40:27.048Z,7.17
2019-01-12T16:42:55.481Z,6.23
2019-01-12T16:45:23.622Z,9.47
2019-01-12T16:47:52.047Z,6.07
2019-01-12T16:50:20.459Z,7.43
2019-01-12T16:52:48.948Z,6.20
2019-01-12T16:55:17.620Z,7.00
2019-01-12T16:57:46.042Z,6.63
2019-01-12T17:00:17.830Z,6.13
2019-01-12T17:02:45.996Z,7.77
2019-01-12T17:05:14.414Z,7.67
2019-01-12T17:07:42.897Z,6.03
2019-01-12T17:10:14.240Z,6.87
2019-01-12T17:12:42.733Z,7.37
2019-01-12T17:15:12.081Z,6.60
2019-01-12T17:17:40.286Z,7.57
2019-01-12T17:20:20.551Z,7.40
2019-01-12T17:22:50.008Z,5.83
2019-01-12T17:25:18.494Z,6.13
2019-01-12T17:27:46.916Z,6.60
2019-01-12T17:30:16.417Z,6.30
2019-01-12T17:32:44.504Z,4.90
2019-01-12T17:35:13.454Z,6.50
2019-01-12T17:37:41.550Z,6.23
2019-01-12T17:40:14.392Z,6.27
2019-01-12T17:42:43.045Z,6.23
2019-01-12T17:45:14.069Z,7.07
2019-01-12T17:47:42.420Z,6.67
2019-01-12T17:50:13.585Z,6.53
2019-01-12T17:52:42.000Z,5.97
2019-01-12T17:55:15.062Z,6.37
2019-01-12T17:57:43.144Z,5.97
2019-01-12T18:00:14.392Z,5.27
2019-01-12T18:02:42.480Z,7.37
2019-01-12T18:05:10.641Z,5.10
2019-01-12T18:07:39.068Z,6.70
2019-01-12T18:10:11.276Z,5.57
2019-01-12T18:12:41.596Z,9.10
2019-01-12T18:15:12.849Z,5.37
2019-01-12T18:17:41.201Z,11.30
2019-01-12T18:20:12.461Z,6.27
2019-01-12T18:22:40.999Z,6.23
2019-01-12T18:25:09.985Z,4.67
2019-01-12T18:27:38.409Z,7.90
2019-01-12T18:30:22.040Z,6.50
2019-01-12T18:32:50.466Z,8.90
2019-01-12T18:35:18.905Z,7.63
2019-01-12T18:37:47.299Z,5.70
2019-01-12T18:40:17.841Z,5.43
2019-01-12T18:42:46.506Z,5.67
2019-01-12T18:45:15.459Z,5.83
2019-01-12T18:47:43.909Z,5.77
2019-01-12T18:50:15.433Z,8.67
2019-01-12T18:52:44.181Z,4.73
2019-01-12T18:55:14.040Z,4.80
2019-01-12T18:57:42.721Z,6.07
2019-01-12T19:00:18.476Z,7.60
2019-01-12T19:02:47.054Z,4.53
2019-01-12T19:05:15.544Z,6.57
2019-01-12T19:07:43.968Z,5.87
2019-01-12T19:10:13.948Z,4.60
2019-01-12T19:12:42.083Z,7.30
2019-01-12T19:15:13.816Z,4.23
2019-01-12T19:17:42.216Z,4.30
2019-01-12T19:20:10.817Z,6.43
2019-01-12T19:22:38.901Z,6.03
2019-01-12T19:25:08.264Z,5.00
2019-01-12T19:27:36.344Z,5.60
2019-01-12T19:30:07.841Z,4.60
2019-01-12T19:32:35.924Z,4.83
2019-01-12T19:35:04.996Z,5.70
2019-01-12T19:37:33.081Z,5.10
2019-01-12T19:40:01.505Z,5.43
2019-01-12T19:42:29.921Z,4.33
2019-01-12T19:44:58.005Z,7.50
2019-01-12T19:47:26.456Z,5.30
2019-01-12T19:49:54.589Z,5.47
2019-01-12T19:52:22.677Z,4.17
2019-01-12T19:54:50.764Z,4.20
2019-01-12T19:57:18.850Z,5.80
2019-01-12T19:59:46.936Z,5.37
2019-01-12T20:02:15.353Z,4.37
2019-01-12T20:04:43.772Z,4.20
2019-01-12T20:07:11.921Z,4.50
2019-01-12T20:09:40.353Z,5.43
2019-01-12T20:12:08.779Z,3.97
2019-01-12T20:14:36.874Z,5.07
2019-01-12T20:17:05.078Z,5.80
2019-01-12T20:19:33.562Z,5.17
2019-01-12T20:22:01.976Z,5.67
2019-01-12T20:24:30.385Z,5.60
2019-01-12T20:26:58.464Z,6.03
2019-01-12T20:29:26.896Z,5.67
2019-01-12T20:32:07.069Z,5.57
2019-01-12T20:34:38.034Z,5.23
2019-01-12T20:37:42.208Z,5.03
2019-01-12T20:40:13.706Z,3.80
2019-01-12T20:43:14.979Z,7.13
2019-01-12T20:45:55.252Z,4.30
2019-01-12T20:48:35.421Z,3.93
2019-01-12T20:51:10.845Z,5.40
2019-01-12T20:53:49.257Z,4.40
2019-01-12T20:56:18.882Z,3.40
2019-01-12T20:58:51.441Z,4.27
2019-01-12T21:01:54.248Z,3.33
2019-01-12T21:04:49.784Z,3.97
2019-01-12T21:07:24.176Z,3.17
2019-01-12T21:09:53.826Z,3.50
2019-01-12T21:12:39.626Z,3.80
2019-01-12T21:15:11.600Z,2.53
2019-01-12T21:17:39.674Z,3.13
2019-01-12T21:20:10.174Z,3.13
2019-01-12T21:22:38.302Z,2.90
2019-01-12T21:25:08.874Z,3.20
2019-01-12T21:27:37.388Z,3.47
2019-01-12T21:30:11.389Z,2.30
2019-01-12T21:32:39.482Z,2.87
2019-01-12T21:35:09.145Z,2.30
2019-01-12T21:37:37.568Z,2.87
2019-01-12T21:40:09.298Z,2.13
2019-01-12T21:42:37.770Z,2.17
2019-01-12T21:45:09.299Z,2.60
2019-01-12T21:47:37.708Z,2.73
2019-01-12T21:50:09.209Z,2.10
2019-01-12T21:52:37.300Z,2.30
2019-01-12T21:55:06.253Z,2.00
2019-01-12T21:57:34.666Z,3.20
2019-01-12T22:00:04.720Z,5.23
2019-01-12T22:02:33.134Z,2.77
2019-01-12T22:05:01.557Z,2.40
2019-01-12T22:07:29.975Z,2.67
2019-01-12T22:09:58.405Z,1.90
2019-01-12T22:12:26.816Z,1.83
2019-01-12T22:14:54.919Z,2.07
2019-01-12T22:17:23.228Z,2.13
2019-01-12T22:19:51.645Z,1.97
2019-01-12T22:22:20.073Z,2.23
2019-01-12T22:24:48.153Z,2.57
2019-01-12T22:27:16.588Z,2.20
2019-01-12T22:29:49.802Z,1.60
2019-01-12T22:32:14.822Z,2.00
2019-01-12T22:34:43.254Z,3.13
2019-01-12T22:37:11.349Z,1.70
2019-01-12T22:39:39.763Z,3.07
2019-01-12T22:42:08.188Z,2.30
2019-01-12T22:44:36.603Z,2.40
2019-01-12T22:47:04.753Z,2.10
2019-01-12T22:49:32.873Z,2.00
2019-01-12T22:52:00.974Z,1.70
2019-01-12T22:54:29.057Z,2.00
2019-01-12T22:56:57.381Z,1.90
2019-01-12T22:59:25.796Z,1.60
2019-01-12T23:01:54.665Z,1.40
2019-01-12T23:04:23.077Z,1.83
2019-01-12T23:06:51.501Z,1.63
2019-01-12T23:09:19.909Z,1.80
2019-01-12T23:11:48.096Z,1.87
2019-01-12T23:14:16.520Z,1.27
2019-01-12T23:16:44.620Z,1.63
2019-01-12T23:19:12.769Z,1.40
2019-01-12T23:21:40.855Z,3.00
2019-01-12T23:24:09.017Z,1.80
2019-01-12T23:26:37.113Z,1.87
2019-01-12T23:29:05.366Z,1.83
2019-01-12T23:31:33.934Z,1.20
2019-01-12T23:34:02.352Z,4.10
2019-01-12T23:36:30.920Z,1.30
2019-01-12T23:38:59.342Z,1.13
2019-01-12T23:41:27.793Z,1.13
2019-01-12T23:43:55.881Z,1.90
2019-01-12T23:46:24.308Z,1.83
2019-01-12T23:48:52.724Z,3.87
2019-01-12T23:51:21.067Z,1.40
2019-01-12T23:53:49.404Z,0.97
2019-01-12T23:56:17.561Z,5.50
2019-01-12T23:58:46.051Z,1.50
